createdAt,value
2023-02-15T00:02:01.244Z,18.27
2023-02-15T00:04:47.338Z,16.43
2023-02-15T00:07:17.279Z,17.30
2023-02-15T00:09:46.776Z,17.60
2023-02-15T00:12:14.855Z,17.93
2023-02-15T00:14:43.177Z,16.43
2023-02-15T00:17:11.142Z,17.90
2023-02-15T00:19:41.004Z,18.90
2023-02-15T00:22:09.487Z,20.37
2023-02-15T00:24:37.726Z,19.23
2023-02-15T00:27:05.678Z,20.20
2023-02-15T00:29:33.696Z,20.27
2023-02-15T00:32:01.659Z,18.60
2023-02-15T00:34:30.275Z,16.97
2023-02-15T00:36:59.683Z,15.93
2023-02-15T00:39:28.341Z,15.33
2023-02-15T00:41:56.335Z,15.83
2023-02-15T00:44:24.331Z,15.83
2023-02-15T00:46:52.317Z,15.23
2023-02-15T00:49:20.271Z,15.57
2023-02-15T00:51:48.272Z,16.60
2023-02-15T00:54:17.616Z,16.17
2023-02-15T00:56:45.551Z,15.53
2023-02-15T00:59:13.665Z,14.83
2023-02-15T01:01:41.629Z,15.73
2023-02-15T01:04:09.776Z,15.90
2023-02-15T01:06:37.766Z,16.03
2023-02-15T01:09:05.751Z,16.60
2023-02-15T01:11:35.101Z,17.47
2023-02-15T01:14:04.223Z,18.50
2023-02-15T01:16:32.238Z,19.17
2023-02-15T01:19:00.185Z,20.10
2023-02-15T01:21:28.505Z,19.93
2023-02-15T01:23:56.499Z,19.23
2023-02-15T01:26:24.496Z,20.07
2023-02-15T01:28:53.840Z,17.87
2023-02-15T01:31:23.396Z,17.43
2023-02-15T01:33:51.835Z,18.70
2023-02-15T01:36:20.014Z,18.00
2023-02-15T01:38:48.074Z,19.20
2023-02-15T01:41:23.843Z,19.07
2023-02-15T01:43:55.033Z,18.87
2023-02-15T01:46:28.355Z,19.00
2023-02-15T01:49:02.248Z,19.03
2023-02-15T01:51:32.887Z,20.70
2023-02-15T01:54:05.298Z,19.87
2023-02-15T01:56:36.832Z,20.53
2023-02-15T01:59:11.108Z,20.90
2023-02-15T02:01:40.243Z,21.03
2023-02-15T02:04:17.112Z,21.70
2023-02-15T02:06:48.667Z,22.17
2023-02-15T02:09:16.894Z,21.90
2023-02-15T02:11:48.409Z,23.90
2023-02-15T02:14:18.520Z,22.43
2023-02-15T02:16:54.817Z,22.80
2023-02-15T02:19:44.077Z,22.70
2023-02-15T02:22:48.884Z,20.83
2023-02-15T02:25:52.084Z,22.90
2023-02-15T02:28:43.977Z,22.47
2023-02-15T02:31:42.002Z,21.40
2023-02-15T02:34:17.781Z,21.60
2023-02-15T02:36:53.049Z,22.13
2023-02-15T02:39:32.184Z,21.93
2023-02-15T02:42:07.957Z,22.00
2023-02-15T02:44:44.945Z,21.47
2023-02-15T02:47:18.228Z,22.33
2023-02-15T02:49:47.594Z,21.70
2023-02-15T02:52:38.198Z,22.43
2023-02-15T02:55:09.716Z,22.07
2023-02-15T02:57:43.085Z,22.00
2023-02-15T03:00:12.530Z,22.93
2023-02-15T03:02:43.443Z,20.87
2023-02-15T03:05:18.308Z,22.13
2023-02-15T03:07:51.064Z,22.43
2023-02-15T03:10:22.526Z,21.53
2023-02-15T03:12:51.157Z,20.90
2023-02-15T03:15:22.140Z,20.10
2023-02-15T03:18:03.764Z,20.90
2023-02-15T03:20:37.324Z,20.10
2023-02-15T03:23:08.621Z,21.30
2023-02-15T03:25:41.888Z,22.10
2023-02-15T03:28:12.522Z,22.53
2023-02-15T03:30:44.104Z,22.83
2023-02-15T03:33:13.480Z,22.37
2023-02-15T03:35:51.133Z,23.07
2023-02-15T03:38:27.700Z,20.97
2023-02-15T03:41:17.330Z,21.03
2023-02-15T03:43:51.228Z,22.43
2023-02-15T03:46:26.556Z,22.10
2023-02-15T03:48:56.593Z,21.77
2023-02-15T03:51:34.685Z,21.27
2023-02-15T03:54:05.536Z,19.53
2023-02-15T03:56:35.193Z,21.20
2023-02-15T03:59:20.893Z,21.43
2023-02-15T04:02:01.828Z,22.97
2023-02-15T04:04:36.474Z,24.20
2023-02-15T04:07:07.581Z,22.27
2023-02-15T04:09:52.749Z,24.00
2023-02-15T04:12:21.057Z,22.57
2023-02-15T04:15:06.269Z,22.43
2023-02-15T04:17:34.298Z,23.50
2023-02-15T04:20:19.619Z,21.37
2023-02-15T04:23:06.461Z,22.33
2023-02-15T04:25:34.437Z,21.40
2023-02-15T04:28:02.392Z,21.20
2023-02-15T04:30:30.495Z,22.70
2023-02-15T04:32:58.607Z,22.03
2023-02-15T04:35:26.781Z,22.73
2023-02-15T04:37:56.870Z,23.50
2023-02-15T04:40:24.959Z,22.47
2023-02-15T04:42:52.937Z,22.67
2023-02-15T04:45:20.897Z,22.47
2023-02-15T04:47:48.841Z,21.67
2023-02-15T04:50:16.853Z,20.87
2023-02-15T04:52:44.822Z,21.13
2023-02-15T04:55:15.099Z,21.90
2023-02-15T04:57:43.080Z,22.40
2023-02-15T05:00:12.281Z,22.70
2023-02-15T05:02:40.213Z,23.33
2023-02-15T05:05:10.464Z,21.90
2023-02-15T05:07:38.441Z,23.60
2023-02-15T05:10:07.434Z,23.20
2023-02-15T05:12:36.877Z,24.10
2023-02-15T05:15:04.969Z,23.63
2023-02-15T05:17:32.918Z,22.20
2023-02-15T05:20:00.885Z,23.53
2023-02-15T05:22:28.866Z,24.13
2023-02-15T05:25:14.209Z,24.40
2023-02-15T05:28:00.998Z,24.90
2023-02-15T05:30:29.292Z,25.60
2023-02-15T05:32:57.370Z,25.90
2023-02-15T05:35:25.481Z,25.63
2023-02-15T05:37:53.442Z,24.13
2023-02-15T05:40:21.387Z,24.43
2023-02-15T05:42:50.793Z,23.30
2023-02-15T05:45:19.001Z,24.70
2023-02-15T05:47:47.557Z,24.93
2023-02-15T05:50:15.608Z,24.87
2023-02-15T05:52:43.676Z,25.33
2023-02-15T05:55:11.635Z,25.17
2023-02-15T05:57:39.672Z,25.73
2023-02-15T06:00:10.950Z,25.30
2023-02-15T06:02:39.657Z,25.07
2023-02-15T06:05:09.435Z,23.77
2023-02-15T06:07:37.665Z,24.73
2023-02-15T06:10:06.889Z,24.17
2023-02-15T06:12:34.871Z,24.00
2023-02-15T06:15:02.830Z,24.63
2023-02-15T06:17:32.272Z,24.10
2023-02-15T06:20:00.250Z,24.57
2023-02-15T06:22:28.234Z,23.53
2023-02-15T06:24:56.204Z,24.70
2023-02-15T06:27:24.165Z,24.63
2023-02-15T06:29:52.196Z,24.93
2023-02-15T06:32:20.338Z,24.47
2023-02-15T06:34:49.868Z,23.67
2023-02-15T06:37:17.885Z,24.50
2023-02-15T06:39:46.221Z,25.40
2023-02-15T06:42:14.162Z,25.67
2023-02-15T06:44:42.272Z,26.27
2023-02-15T06:47:10.304Z,26.23
2023-02-15T06:49:38.453Z,24.90
2023-02-15T06:52:08.201Z,25.40
2023-02-15T06:54:36.303Z,25.33
2023-02-15T06:57:04.458Z,26.00
2023-02-15T06:59:32.526Z,27.53
2023-02-15T07:02:00.746Z,25.83
2023-02-15T07:04:29.717Z,26.37
2023-02-15T07:06:57.992Z,25.37
2023-02-15T07:09:27.645Z,26.10
2023-02-15T07:12:13.052Z,25.90
2023-02-15T07:14:41.634Z,25.97
2023-02-15T07:17:27.423Z,25.47
2023-02-15T07:19:58.473Z,25.87
2023-02-15T07:22:26.903Z,26.37
2023-02-15T07:24:57.200Z,25.63
2023-02-15T07:27:25.711Z,25.53
2023-02-15T07:29:54.428Z,26.27
2023-02-15T07:32:22.692Z,26.37
2023-02-15T07:34:51.314Z,27.07
2023-02-15T07:37:19.530Z,25.33
2023-02-15T07:39:48.189Z,24.83
2023-02-15T07:42:18.861Z,25.57
2023-02-15T07:44:47.098Z,25.37
2023-02-15T07:47:15.266Z,25.70
2023-02-15T07:49:43.375Z,27.03
2023-02-15T07:52:11.577Z,26.83
2023-02-15T07:54:39.538Z,28.37
2023-02-15T07:57:07.654Z,27.07
2023-02-15T07:59:37.113Z,29.17
2023-02-15T08:02:05.107Z,26.87
2023-02-15T08:04:33.189Z,26.50
2023-02-15T08:07:01.233Z,26.37
2023-02-15T08:09:29.683Z,27.97
2023-02-15T08:11:57.684Z,27.73
2023-02-15T08:14:25.925Z,28.17
2023-02-15T08:16:57.247Z,27.87
2023-02-15T08:19:27.310Z,28.03
2023-02-15T08:21:58.112Z,28.83
2023-02-15T08:24:28.428Z,29.40
2023-02-15T08:26:57.028Z,29.87
2023-02-15T08:29:26.949Z,28.13
2023-02-15T08:31:59.883Z,28.07
2023-02-15T08:34:28.398Z,27.80
2023-02-15T08:36:56.431Z,28.70
2023-02-15T08:39:24.911Z,27.23
2023-02-15T08:41:53.315Z,28.60
2023-02-15T08:44:22.284Z,27.57
2023-02-15T08:46:51.463Z,27.67
2023-02-15T08:49:22.555Z,29.83
2023-02-15T08:51:51.432Z,27.83
2023-02-15T08:54:21.765Z,30.90
2023-02-15T08:56:50.663Z,28.33
2023-02-15T08:59:20.889Z,26.93
2023-02-15T09:01:49.937Z,27.00
2023-02-15T09:04:20.183Z,27.57
2023-02-15T09:06:49.960Z,28.23
2023-02-15T09:09:18.347Z,26.80
2023-02-15T09:11:48.692Z,27.17
2023-02-15T09:14:21.001Z,28.13
2023-02-15T09:16:52.624Z,28.90
2023-02-15T09:19:23.968Z,28.27
2023-02-15T09:21:52.642Z,26.80
2023-02-15T09:24:21.094Z,27.97
2023-02-15T09:26:50.367Z,29.43
2023-02-15T09:29:19.640Z,25.80
2023-02-15T09:31:50.016Z,25.83
2023-02-15T09:34:20.170Z,27.63
2023-02-15T09:36:50.156Z,26.20
2023-02-15T09:39:20.395Z,25.70
2023-02-15T09:42:21.088Z,25.27
2023-02-15T09:45:05.540Z,26.20
2023-02-15T09:48:07.035Z,25.87
2023-02-15T09:50:48.172Z,24.77
2023-02-15T09:53:39.185Z,24.37
2023-02-15T09:56:14.496Z,25.00
2023-02-15T09:58:53.604Z,24.23
2023-02-15T10:01:32.613Z,23.30
2023-02-15T10:04:19.109Z,24.53
2023-02-15T10:06:57.950Z,24.30
2023-02-15T10:09:40.016Z,24.87
2023-02-15T10:12:32.822Z,23.20
2023-02-15T10:15:25.057Z,24.37
2023-02-15T10:18:12.082Z,23.40
2023-02-15T10:20:49.454Z,23.77
2023-02-15T10:23:35.636Z,22.20
2023-02-15T10:26:15.117Z,25.33
2023-02-15T10:28:48.906Z,22.13
2023-02-15T10:31:25.862Z,22.07
2023-02-15T10:34:17.354Z,20.93
2023-02-15T10:37:13.844Z,20.57
2023-02-15T10:39:52.309Z,20.90
2023-02-15T10:42:37.997Z,21.33
2023-02-15T10:45:16.030Z,20.10
2023-02-15T10:48:00.584Z,20.10
2023-02-15T10:50:37.211Z,20.33
2023-02-15T10:53:23.196Z,20.47
2023-02-15T10:55:57.998Z,19.80
2023-02-15T10:58:45.848Z,18.70
2023-02-15T11:01:22.372Z,18.07
2023-02-15T11:04:29.189Z,17.97
2023-02-15T11:07:04.315Z,17.40
2023-02-15T11:09:40.053Z,17.73
2023-02-15T11:12:15.537Z,19.37
2023-02-15T11:14:50.463Z,19.17
2023-02-15T11:17:23.946Z,20.50
2023-02-15T11:20:01.648Z,20.10
2023-02-15T11:22:33.236Z,18.00
2023-02-15T11:25:03.690Z,18.60
2023-02-15T11:27:35.090Z,18.60
2023-02-15T11:30:10.646Z,17.63
2023-02-15T11:32:42.160Z,17.97
2023-02-15T11:35:25.659Z,17.90
2023-02-15T11:37:59.350Z,20.03
2023-02-15T11:40:31.367Z,18.13
2023-02-15T11:43:04.374Z,18.33
2023-02-15T11:45:35.444Z,17.17
2023-02-15T11:48:10.985Z,17.37
2023-02-15T11:50:39.350Z,19.10
2023-02-15T11:53:15.203Z,19.43
2023-02-15T11:55:45.164Z,17.70
2023-02-15T11:58:24.128Z,18.77
2023-02-15T12:01:02.928Z,18.90
2023-02-15T12:03:45.640Z,17.93
2023-02-15T12:06:22.042Z,18.17
2023-02-15T12:08:59.159Z,18.73
2023-02-15T12:11:35.611Z,19.27
2023-02-15T12:14:06.342Z,19.83
2023-02-15T12:16:44.637Z,18.30
2023-02-15T12:19:31.217Z,17.13
2023-02-15T12:22:01.895Z,18.00
2023-02-15T12:24:32.992Z,18.60
2023-02-15T12:27:05.314Z,19.23
2023-02-15T12:29:41.862Z,18.57
2023-02-15T12:32:19.228Z,17.00
2023-02-15T12:34:48.252Z,20.10
2023-02-15T12:37:21.638Z,18.50
2023-02-15T12:39:59.887Z,18.73
2023-02-15T12:42:30.349Z,19.73
2023-02-15T12:45:01.761Z,18.50
2023-02-15T12:47:32.472Z,19.87
2023-02-15T12:50:18.088Z,18.63
2023-02-15T12:52:48.710Z,17.00
2023-02-15T12:55:24.671Z,18.70
2023-02-15T12:58:08.427Z,18.57
2023-02-15T13:00:36.648Z,18.17
2023-02-15T13:03:06.687Z,18.53
2023-02-15T13:05:38.960Z,18.40
2023-02-15T13:08:16.669Z,18.20
2023-02-15T13:10:56.034Z,18.30
2023-02-15T13:13:27.722Z,18.47
2023-02-15T13:16:00.415Z,18.13
2023-02-15T13:18:34.241Z,17.63
2023-02-15T13:21:08.377Z,20.03
2023-02-15T13:23:36.570Z,18.17
2023-02-15T13:26:07.058Z,17.53
2023-02-15T13:28:42.017Z,18.30
2023-02-15T13:31:16.320Z,17.83
2023-02-15T13:33:50.559Z,18.17
2023-02-15T13:36:26.143Z,18.77
2023-02-15T13:39:06.231Z,19.87
2023-02-15T13:41:37.389Z,19.70
2023-02-15T13:44:19.980Z,19.27
2023-02-15T13:46:58.477Z,18.93
2023-02-15T13:49:44.116Z,19.70
2023-02-15T13:52:22.069Z,18.83
2023-02-15T13:55:04.081Z,19.67
2023-02-15T13:57:43.728Z,18.10
2023-02-15T14:00:20.476Z,18.70
2023-02-15T14:03:19.629Z,19.40
2023-02-15T14:06:15.464Z,17.87
2023-02-15T14:08:56.994Z,18.30
2023-02-15T14:11:35.503Z,18.87
2023-02-15T14:14:22.891Z,17.83
2023-02-15T14:17:07.208Z,18.40
2023-02-15T14:19:43.314Z,17.40
2023-02-15T14:22:23.223Z,19.67
2023-02-15T14:25:06.629Z,20.87
2023-02-15T14:27:47.781Z,19.37
2023-02-15T14:30:20.549Z,19.87
2023-02-15T14:32:51.812Z,19.73
2023-02-15T14:35:22.852Z,18.37
2023-02-15T14:37:59.670Z,19.43
2023-02-15T14:40:54.386Z,19.97
2023-02-15T14:43:33.383Z,18.87
2023-02-15T14:46:10.521Z,17.63
2023-02-15T14:48:44.561Z,16.67
2023-02-15T14:51:13.500Z,16.97
2023-02-15T14:53:43.800Z,16.93
2023-02-15T14:56:24.408Z,15.57
2023-02-15T14:59:15.164Z,15.60
2023-02-15T15:01:44.700Z,16.70
2023-02-15T15:04:23.357Z,17.57
2023-02-15T15:07:02.809Z,18.73
2023-02-15T15:09:35.315Z,16.87
2023-02-15T15:12:33.022Z,16.80
2023-02-15T15:15:02.100Z,18.17
2023-02-15T15:17:56.150Z,18.00
2023-02-15T15:20:51.809Z,17.50
2023-02-15T15:23:46.512Z,18.03
2023-02-15T15:26:31.939Z,18.23
2023-02-15T15:29:04.351Z,18.43
2023-02-15T15:31:47.071Z,18.47
2023-02-15T15:34:35.125Z,20.03
2023-02-15T15:37:35.306Z,20.17
2023-02-15T15:40:45.235Z,20.07
2023-02-15T15:43:50.693Z,21.73
2023-02-15T15:46:44.003Z,21.03
2023-02-15T15:49:15.692Z,20.87
2023-02-15T15:51:45.540Z,22.10
2023-02-15T15:54:18.394Z,22.80
2023-02-15T15:56:50.636Z,24.90
2023-02-15T15:59:23.381Z,25.90
2023-02-15T16:01:53.004Z,23.20
2023-02-15T16:04:29.991Z,23.83
2023-02-15T16:06:59.008Z,22.83
2023-02-15T16:09:28.737Z,22.90
2023-02-15T16:12:01.350Z,23.63
2023-02-15T16:14:33.720Z,23.93
2023-02-15T16:17:05.404Z,22.87
2023-02-15T16:19:36.845Z,24.43
2023-02-15T16:22:08.323Z,24.57
2023-02-15T16:24:46.236Z,24.67
2023-02-15T16:27:25.760Z,25.63
2023-02-15T16:29:53.799Z,24.53
2023-02-15T16:32:25.586Z,27.43
2023-02-15T16:34:55.517Z,29.77
2023-02-15T16:37:27.910Z,30.23
2023-02-15T16:39:57.274Z,30.17
2023-02-15T16:42:26.289Z,30.13
2023-02-15T16:44:57.652Z,32.70
2023-02-15T16:47:29.170Z,31.47
2023-02-15T16:50:00.245Z,33.87
2023-02-15T16:52:29.835Z,33.37
2023-02-15T16:55:00.373Z,32.40
2023-02-15T16:57:31.013Z,31.30
2023-02-15T17:00:05.830Z,31.40
2023-02-15T17:02:56.308Z,34.17
2023-02-15T17:05:24.686Z,35.53
2023-02-15T17:08:06.846Z,35.93
2023-02-15T17:10:37.771Z,36.40
2023-02-15T17:13:12.279Z,37.73
2023-02-15T17:15:42.504Z,37.27
2023-02-15T17:18:17.175Z,36.60
2023-02-15T17:20:45.937Z,38.63
2023-02-15T17:23:32.536Z,37.30
2023-02-15T17:26:02.601Z,37.37
2023-02-15T17:28:33.771Z,38.27
2023-02-15T17:31:07.862Z,37.50
2023-02-15T17:33:40.952Z,38.93
2023-02-15T17:36:12.453Z,40.93
2023-02-15T17:38:42.196Z,41.07
2023-02-15T17:41:10.800Z,40.77
2023-02-15T17:43:38.754Z,42.67
2023-02-15T17:46:06.794Z,42.73
2023-02-15T17:48:37.181Z,40.80
2023-02-15T17:51:09.979Z,41.93
2023-02-15T17:53:38.712Z,41.37
2023-02-15T17:56:10.916Z,42.13
2023-02-15T17:58:40.319Z,39.13
2023-02-15T18:01:32.075Z,38.90
2023-02-15T18:04:17.754Z,38.40
2023-02-15T18:07:04.906Z,40.17
2023-02-15T18:09:50.430Z,42.17
2023-02-15T18:12:22.677Z,41.00
2023-02-15T18:14:51.295Z,38.77
2023-02-15T18:17:20.219Z,38.17
2023-02-15T18:19:48.697Z,38.07
2023-02-15T18:22:20.133Z,38.43
2023-02-15T18:24:49.331Z,35.77
2023-02-15T18:27:17.979Z,36.80
2023-02-15T18:29:45.968Z,36.87
2023-02-15T18:32:18.884Z,37.00
2023-02-15T18:34:49.378Z,38.87
2023-02-15T18:37:21.082Z,35.53
2023-02-15T18:39:50.820Z,36.10
2023-02-15T18:42:22.645Z,35.90
2023-02-15T18:44:51.717Z,35.83
2023-02-15T18:47:19.652Z,36.33
2023-02-15T18:49:47.617Z,35.67
2023-02-15T18:52:20.087Z,35.87
2023-02-15T18:54:48.861Z,36.60
2023-02-15T18:57:17.567Z,35.43
2023-02-15T18:59:45.526Z,35.87
2023-02-15T19:02:14.665Z,35.37
2023-02-15T19:04:42.994Z,34.73
2023-02-15T19:07:21.061Z,34.80
2023-02-15T19:09:51.106Z,35.97
2023-02-15T19:12:19.954Z,35.87
2023-02-15T19:14:48.200Z,35.27
2023-02-15T19:17:18.112Z,35.33
2023-02-15T19:19:46.759Z,35.63
2023-02-15T19:22:17.230Z,35.53
2023-02-15T19:24:48.474Z,34.83
2023-02-15T19:27:23.118Z,35.13
2023-02-15T19:29:51.357Z,34.87
2023-02-15T19:32:19.397Z,36.67
2023-02-15T19:34:47.375Z,35.37
2023-02-15T19:37:24.672Z,36.50
2023-02-15T19:39:54.540Z,38.57
2023-02-15T19:42:24.623Z,35.47
2023-02-15T19:44:54.553Z,36.60
2023-02-15T19:47:22.998Z,34.17
2023-02-15T19:49:50.961Z,35.43
2023-02-15T19:52:23.151Z,34.73
2023-02-15T19:54:54.127Z,34.83
2023-02-15T19:57:22.433Z,36.20
2023-02-15T19:59:50.457Z,36.00
2023-02-15T20:02:20.243Z,36.27
2023-02-15T20:04:48.268Z,36.63
2023-02-15T20:07:23.745Z,37.93
2023-02-15T20:09:53.188Z,36.10
2023-02-15T20:12:23.758Z,35.70
2023-02-15T20:14:51.977Z,35.43
2023-02-15T20:17:20.153Z,34.73
2023-02-15T20:19:48.132Z,36.90
2023-02-15T20:22:24.218Z,35.60
2023-02-15T20:24:56.208Z,36.13
2023-02-15T20:27:24.489Z,35.70
2023-02-15T20:29:55.769Z,35.57
2023-02-15T20:32:24.104Z,35.27
2023-02-15T20:34:52.180Z,37.73
2023-02-15T20:37:24.262Z,36.43
2023-02-15T20:39:53.735Z,37.07
2023-02-15T20:42:21.682Z,36.57
2023-02-15T20:44:49.619Z,36.13
2023-02-15T20:47:17.566Z,37.60
2023-02-15T20:49:45.568Z,37.90
2023-02-15T20:52:20.356Z,38.50
2023-02-15T20:54:48.525Z,36.90
2023-02-15T20:57:17.897Z,37.83
2023-02-15T20:59:46.387Z,39.67
2023-02-15T21:02:19.379Z,37.80
2023-02-15T21:04:47.818Z,39.13
2023-02-15T21:07:17.752Z,38.87
2023-02-15T21:09:46.090Z,38.93
2023-02-15T21:12:15.778Z,40.07
2023-02-15T21:14:45.635Z,40.40
2023-02-15T21:17:14.328Z,40.37
2023-02-15T21:19:42.680Z,40.93
2023-02-15T21:22:13.005Z,42.03
2023-02-15T21:24:44.677Z,39.27
2023-02-15T21:27:14.636Z,41.90
2023-02-15T21:29:43.927Z,41.17
2023-02-15T21:32:12.279Z,41.57
2023-02-15T21:34:40.967Z,42.57
2023-02-15T21:37:27.702Z,41.90
2023-02-15T21:39:55.809Z,39.77
2023-02-15T21:42:41.096Z,39.53
2023-02-15T21:45:33.789Z,39.87
2023-02-15T21:48:01.997Z,38.13
2023-02-15T21:50:47.458Z,41.77
2023-02-15T21:53:22.357Z,38.93
2023-02-15T21:55:50.316Z,38.03
2023-02-15T21:58:21.151Z,38.67
2023-02-15T22:00:50.858Z,39.17
2023-02-15T22:03:18.857Z,37.40
2023-02-15T22:05:46.823Z,39.77
2023-02-15T22:08:15.578Z,40.17
2023-02-15T22:10:44.385Z,39.50
2023-02-15T22:13:16.139Z,39.13
2023-02-15T22:15:46.804Z,40.50
2023-02-15T22:18:27.725Z,38.63
2023-02-15T22:20:56.897Z,39.43
2023-02-15T22:23:25.079Z,40.23
2023-02-15T22:25:57.720Z,41.80
2023-02-15T22:28:28.858Z,39.13
2023-02-15T22:30:56.905Z,40.00
2023-02-15T22:33:28.644Z,41.53
2023-02-15T22:35:57.125Z,38.63
2023-02-15T22:38:25.215Z,37.77
2023-02-15T22:40:56.574Z,38.93
2023-02-15T22:43:33.654Z,38.40
2023-02-15T22:46:04.667Z,39.30
2023-02-15T22:48:34.711Z,39.07
2023-02-15T22:51:03.027Z,38.57
2023-02-15T22:53:31.265Z,38.80
2023-02-15T22:56:02.961Z,39.90
2023-02-15T22:58:31.113Z,38.70
2023-02-15T23:01:00.130Z,35.87
2023-02-15T23:03:29.774Z,33.93
2023-02-15T23:05:59.069Z,34.23
2023-02-15T23:08:27.090Z,34.60
2023-02-15T23:10:56.711Z,34.50
2023-02-15T23:13:27.015Z,32.07
2023-02-15T23:15:58.066Z,32.97
2023-02-15T23:18:29.165Z,33.70
2023-02-15T23:21:00.898Z,33.53
2023-02-15T23:23:34.707Z,32.93
2023-02-15T23:26:04.525Z,32.27
2023-02-15T23:28:36.670Z,32.53
2023-02-15T23:31:12.117Z,32.93
2023-02-15T23:33:40.062Z,33.13
2023-02-15T23:36:15.538Z,32.57
2023-02-15T23:38:43.523Z,30.80
2023-02-15T23:41:21.336Z,31.40
2023-02-15T23:43:51.554Z,31.63
2023-02-15T23:46:27.274Z,30.00
2023-02-15T23:48:56.285Z,32.13
2023-02-15T23:51:30.550Z,31.87
2023-02-15T23:53:58.678Z,32.17
2023-02-15T23:56:26.651Z,32.97
2023-02-15T23:58:54.674Z,33.40
